Time;durP1;ratioP1;P1;durP2;ratioP2;P2;SDS_P1;SDS_P2;PMS_P1;PMS_P2;Temp;Humidity;BMP_temperature;BMP_pressure;BME280_temperature;BME280_humidity;BME280_pressure;Samples;Min_cycle;Max_cycle;Signal;HPM_P1;HPM_P2
2023/02/08 00:06:46;;;;;;;73.7;45.9;;;;;;;-2;83.4;101210;;;;
2023/02/08 00:16:46;;;;;;;73.7;45.9;;;;;;;-1.9;83.3;101230;;;;
2023/02/08 00:27:46;;;;;;;75.3;41.2;;;;;;;-1.9;83.2;101230;;;;
2023/02/08 00:38:48;;;;;;;75.3;41.2;;;;;;;-1.9;83.2;101240;;;;
2023/02/08 00:49:46;;;;;;;75.3;41.2;;;;;;;-2;83.4;101230;;;;
2023/02/08 00:59:46;;;;;;;62.1;35.8;;;;;;;-1.9;83.1;101230;;;;
2023/02/08 01:10:46;;;;;;;62.1;35.8;;;;;;;-1.9;83;101230;;;;
2023/02/08 01:20:46;;;;;;;62.1;35.8;;;;;;;-1.8;83;101230;;;;
2023/02/08 01:31:46;;;;;;;65.1;38.3;;;;;;;-1.7;82.7;101240;;;;
2023/02/08 01:42:46;;;;;;;65.1;38.3;;;;;;;-1.8;83.1;101230;;;;
2023/02/08 01:53:46;;;;;;;63.8;37.6;;;;;;;-1.6;82.9;101240;;;;
2023/02/08 02:03:46;;;;;;;63.8;37.6;;;;;;;-1.6;82.6;101240;;;;
2023/02/08 02:13:46;;;;;;;63.8;37.6;;;;;;;-1.5;82.7;101240;;;;
2023/02/08 02:24:46;;;;;;;73.6;40.2;;;;;;;-1.4;82.7;101250;;;;
2023/02/08 02:35:46;;;;;;;73.6;40.2;;;;;;;-1.4;82.7;101240;;;;
2023/02/08 02:45:46;;;;;;;73.6;40.2;;;;;;;-1.4;82.7;101240;;;;
2023/02/08 02:55:46;;;;;;;72.2;41.2;;;;;;;-1.3;82.8;101240;;;;
2023/02/08 03:05:46;;;;;;;72.2;41.2;;;;;;;-1.2;82.7;101260;;;;
2023/02/08 03:15:46;;;;;;;72.2;41.2;;;;;;;-1.2;83;101270;;;;
2023/02/08 03:26:46;;;;;;;76.7;42.5;;;;;;;-1.2;83.3;101280;;;;
2023/02/08 03:37:46;;;;;;;76.7;42.5;;;;;;;-1.4;83.7;101290;;;;
2023/02/08 03:47:46;;;;;;;76.7;42.5;;;;;;;-1.3;84.1;101290;;;;
2023/02/08 03:58:46;;;;;;;71.5;40.6;;;;;;;-1.3;84.1;101290;;;;
2023/02/08 04:08:46;;;;;;;71.5;40.6;;;;;;;-1.1;83.9;101280;;;;
2023/02/08 04:18:47;;;;;;;71.5;40.6;;;;;;;-1;83.6;101270;;;;
2023/02/08 04:29:46;;;;;;;66;37.9;;;;;;;-1;83;101270;;;;
2023/02/08 04:40:46;;;;;;;66;37.9;;;;;;;-1.2;83.6;101270;;;;
2023/02/08 04:50:46;;;;;;;66;37.9;;;;;;;-1.1;83.7;101270;;;;
2023/02/08 05:01:46;;;;;;;76.6;40.7;;;;;;;-1.1;83.6;101300;;;;
2023/02/08 05:12:46;;;;;;;76.6;40.7;;;;;;;-1.5;84.7;101310;;;;
2023/02/08 05:23:46;;;;;;;81.6;44.9;;;;;;;-1.3;85;101310;;;;
2023/02/08 05:33:46;;;;;;;81.6;44.9;;;;;;;-1.5;85;101320;;;;
2023/02/08 05:43:46;;;;;;;81.6;44.9;;;;;;;-1.7;85.7;101340;;;;
2023/02/08 05:53:46;;;;;;;61.2;36.2;;;;;;;-1.8;86.3;101340;;;;
2023/02/08 06:03:46;;;;;;;61.2;36.2;;;;;;;-1.6;85.8;101360;;;;
2023/02/08 06:14:46;;;;;;;61.2;36.2;;;;;;;-1.7;84.7;101360;;;;
2023/02/08 06:25:46;;;;;;;46.2;23.6;;;;;;;-1.8;83.8;101370;;;;
2023/02/08 06:35:46;;;;;;;46.2;23.6;;;;;;;-2;82.9;101370;;;;
2023/02/08 06:46:46;;;;;;;46.2;23.6;;;;;;;-2.3;82.7;101390;;;;
2023/02/08 06:56:46;;;;;;;31.7;16.7;;;;;;;-2.4;83.1;101390;;;;
2023/02/08 07:07:47;;;;;;;31.7;16.7;;;;;;;-2.3;83.9;101380;;;;
2023/02/08 07:18:46;;;;;;;31.7;16.7;;;;;;;-1.9;84.1;101390;;;;
2023/02/08 07:29:46;;;;;;;35.4;17.3;;;;;;;-1.1;83.8;101410;;;;
2023/02/08 07:40:46;;;;;;;35.4;17.3;;;;;;;-0.8;82.5;101410;;;;
2023/02/08 07:51:46;;;;;;;47.7;28.6;;;;;;;-0.7;82;101420;;;;
2023/02/08 08:01:46;;;;;;;47.7;28.6;;;;;;;-0.5;81.5;101420;;;;
2023/02/08 08:11:46;;;;;;;47.7;28.6;;;;;;;-0.1;81;101420;;;;
2023/02/08 08:21:46;;;;;;;42;25.5;;;;;;;0.1;80.3;101430;;;;
2023/02/08 08:31:46;;;;;;;42;25.5;;;;;;;0.4;79.6;101440;;;;
2023/02/08 08:42:46;;;;;;;42;25.5;;;;;;;0.1;79.9;101440;;;;
2023/02/08 08:53:46;;;;;;;51.2;30.1;;;;;;;0;80.6;101450;;;;
2023/02/08 09:04:46;;;;;;;51.2;30.1;;;;;;;-0.2;81.7;101460;;;;
2023/02/08 09:14:46;;;;;;;51.2;30.1;;;;;;;-0.1;81.6;101460;;;;
2023/02/08 09:25:46;;;;;;;47.2;29;;;;;;;0.5;80.6;101460;;;;
2023/02/08 09:35:46;;;;;;;47.2;29;;;;;;;1.1;79;101470;;;;
2023/02/08 09:45:46;;;;;;;47.2;29;;;;;;;1.3;77.5;101470;;;;
2023/02/08 09:56:46;;;;;;;45.8;27.7;;;;;;;1.3;77.3;101470;;;;
2023/02/08 10:07:46;;;;;;;45.8;27.7;;;;;;;1.2;75.6;101460;;;;
2023/02/08 10:17:46;;;;;;;45.8;27.7;;;;;;;0.9;76.5;101460;;;;
2023/02/08 10:27:46;;;;;;;35.6;24.9;;;;;;;1.3;74.2;101450;;;;
2023/02/08 10:38:46;;;;;;;35.6;24.9;;;;;;;1.4;73.9;101450;;;;
2023/02/08 10:49:46;;;;;;;35.6;24.9;;;;;;;1.4;72.4;101440;;;;
2023/02/08 10:59:48;;;;;;;31.1;20.9;;;;;;;2.3;70.7;101430;;;;
2023/02/08 11:10:46;;;;;;;31.1;20.9;;;;;;;2.4;67.9;101430;;;;
2023/02/08 11:20:46;;;;;;;27.5;17.5;;;;;;;3;65.2;101420;;;;
2023/02/08 11:31:45;;;;;;;27.5;17.5;;;;;;;2.6;65.8;101420;;;;
2023/02/08 11:41:46;;;;;;;27.5;17.5;;;;;;;2.9;64.2;101420;;;;
2023/02/08 11:52:46;;;;;;;23;15.8;;;;;;;2.6;63.8;101410;;;;
2023/02/08 12:03:46;;;;;;;23;15.8;;;;;;;2.4;64.1;101410;;;;
2023/02/08 12:13:46;;;;;;;23;15.8;;;;;;;2.5;64.5;101400;;;;
2023/02/08 12:23:45;;;;;;;15.3;10.9;;;;;;;2;65.1;101390;;;;
2023/02/08 12:34:46;;;;;;;15.3;10.9;;;;;;;1.7;64.5;101380;;;;
2023/02/08 12:44:46;;;;;;;15.3;10.9;;;;;;;1.5;64.4;101380;;;;
2023/02/08 12:55:46;;;;;;;13.5;8.1;;;;;;;1.4;65;101370;;;;
2023/02/08 13:06:45;;;;;;;13.5;8.1;;;;;;;1.6;64;101360;;;;
2023/02/08 13:16:46;;;;;;;13.5;8.1;;;;;;;1.9;64;101350;;;;
2023/02/08 13:26:45;;;;;;;11.1;7.3;;;;;;;1.9;63.8;101350;;;;
2023/02/08 13:36:46;;;;;;;11.1;7.3;;;;;;;2;63.7;101340;;;;
2023/02/08 13:47:45;;;;;;;11.1;7.3;;;;;;;2;63.6;101340;;;;
2023/02/08 13:57:45;;;;;;;13.6;8.1;;;;;;;1.9;63.4;101340;;;;
2023/02/08 14:07:45;;;;;;;13.6;8.1;;;;;;;1.7;62.8;101350;;;;
2023/02/08 14:17:45;;;;;;;13.6;8.1;;;;;;;1.5;62.8;101340;;;;
2023/02/08 14:28:47;;;;;;;14.1;9;;;;;;;1.4;62.9;101340;;;;
2023/02/08 14:38:45;;;;;;;14.1;9;;;;;;;1.2;63.3;101330;;;;
2023/02/08 14:49:45;;;;;;;15.4;9;;;;;;;0.9;64.7;101330;;;;
2023/02/08 14:59:46;;;;;;;15.4;9;;;;;;;0.6;69;101340;;;;
2023/02/08 15:10:46;;;;;;;15.4;9;;;;;;;0.5;69.6;101350;;;;
2023/02/08 15:21:45;;;;;;;22.3;12;;;;;;;0.2;70.5;101350;;;;
2023/02/08 15:31:45;;;;;;;22.3;12;;;;;;;-0.1;72.1;101340;;;;
2023/02/08 15:42:45;;;;;;;22.3;12;;;;;;;-0.5;73.5;101340;;;;
2023/02/08 15:52:45;;;;;;;25.4;12.8;;;;;;;-0.8;73.9;101350;;;;
2023/02/08 16:02:45;;;;;;;25.4;12.8;;;;;;;-1.3;75.3;101340;;;;
2023/02/08 16:12:45;;;;;;;25.4;12.8;;;;;;;-1.5;75.9;101350;;;;
2023/02/08 16:23:45;;;;;;;16.5;10.3;;;;;;;-1.8;76.4;101340;;;;
2023/02/08 16:33:45;;;;;;;16.5;10.3;;;;;;;-2.1;76.7;101340;;;;
2023/02/08 16:44:45;;;;;;;16.5;10.3;;;;;;;-2.2;77;101350;;;;
2023/02/08 16:55:45;;;;;;;13.6;7.2;;;;;;;-2.4;77.5;101340;;;;
2023/02/08 17:06:45;;;;;;;13.6;7.2;;;;;;;-2.6;77.6;101340;;;;
2023/02/08 17:16:45;;;;;;;13.6;7.2;;;;;;;-2.8;78.1;101340;;;;
2023/02/08 17:27:45;;;;;;;16.5;10.1;;;;;;;-3.1;78;101360;;;;
2023/02/08 17:37:45;;;;;;;16.5;10.1;;;;;;;-3.3;79;101360;;;;
2023/02/08 17:47:45;;;;;;;16.5;10.1;;;;;;;-3.4;79.5;101360;;;;
2023/02/08 17:58:45;;;;;;;30;19.4;;;;;;;-3.5;80.7;101350;;;;
2023/02/08 18:09:45;;;;;;;30;19.4;;;;;;;-3.6;80.6;101350;;;;
2023/02/08 18:19:45;;;;;;;27.2;15.8;;;;;;;-3.7;80.8;101350;;;;
2023/02/08 18:29:45;;;;;;;27.2;15.8;;;;;;;-3.9;80.5;101350;;;;
2023/02/08 18:40:45;;;;;;;27.2;15.8;;;;;;;-4.1;80.5;101350;;;;
2023/02/08 18:50:45;;;;;;;31.6;19;;;;;;;-4.4;80.8;101350;;;;
2023/02/08 19:00:45;;;;;;;31.6;19;;;;;;;-4.4;81.2;101340;;;;
2023/02/08 19:10:45;;;;;;;31.6;19;;;;;;;-4.5;81.5;101340;;;;
2023/02/08 19:21:45;;;;;;;31;18.3;;;;;;;-4.6;81.5;101330;;;;
2023/02/08 19:31:45;;;;;;;31;18.3;;;;;;;-4.9;81.6;101330;;;;
2023/02/08 19:41:45;;;;;;;31;18.3;;;;;;;-5.1;81.8;101340;;;;
2023/02/08 19:52:45;;;;;;;61.3;34.4;;;;;;;-5.2;82.4;101330;;;;
2023/02/08 20:02:45;;;;;;;61.3;34.4;;;;;;;-5.1;83.3;101330;;;;
2023/02/08 20:12:45;;;;;;;61.3;34.4;;;;;;;-5.1;83.5;101320;;;;
2023/02/08 20:23:45;;;;;;;36.7;22.2;;;;;;;-5;83.4;101310;;;;
2023/02/08 20:33:45;;;;;;;36.7;22.2;;;;;;;-4.9;83.3;101300;;;;
2023/02/08 20:44:45;;;;;;;36.7;22.2;;;;;;;-5.1;82.9;101290;;;;
2023/02/08 20:55:45;;;;;;;62.2;34.7;;;;;;;-5.2;82.6;101280;;;;
2023/02/08 21:06:45;;;;;;;62.2;34.7;;;;;;;-5.4;82.5;101280;;;;
2023/02/08 21:16:46;;;;;;;62.2;34.7;;;;;;;-5.6;82.7;101290;;;;
2023/02/08 21:26:45;;;;;;;38.9;26.8;;;;;;;-5.6;83.1;101280;;;;
2023/02/08 21:37:45;;;;;;;38.9;26.8;;;;;;;-5.8;83.1;101280;;;;
2023/02/08 21:58:45;;;;;;;73.9;43;;;;;;;-6.2;83.8;101250;;;;
2023/02/08 22:08:45;;;;;;;73.9;43;;;;;;;-6.3;84.5;101250;;;;
2023/02/08 22:18:45;;;;;;;74.6;46.2;;;;;;;-6.4;84.5;101240;;;;
2023/02/08 22:29:45;;;;;;;74.6;46.2;;;;;;;-6.5;84.2;101230;;;;
2023/02/08 22:40:45;;;;;;;74.6;46.2;;;;;;;-6.8;84.1;101240;;;;
2023/02/08 22:51:45;;;;;;;63.5;43.4;;;;;;;-6.8;84.7;101240;;;;
2023/02/08 23:01:45;;;;;;;63.5;43.4;;;;;;;-6.7;84.4;101230;;;;
2023/02/08 23:11:45;;;;;;;63.5;43.4;;;;;;;-6.8;84;101230;;;;
2023/02/08 23:22:45;;;;;;;56.4;37.7;;;;;;;-7;83.7;101210;;;;
2023/02/08 23:33:45;;;;;;;56.4;37.7;;;;;;;-7.1;83.6;101210;;;;
2023/02/08 23:43:45;;;;;;;56.4;37.7;;;;;;;-7.1;83.6;101200;;;;
2023/02/08 23:54:45;;;;;;;53.6;33.3;;;;;;;-7.1;84.1;101200;;;;
